• Join FlightAware (Why Join?)
  • Login
  • US Flag 
05:43AM EDT


 

Airport Tracker/Info


-or-


 

Live Flight TrackerFlight Track Log ✈ DAL370 ✈ 21-Jul-2013 ✈ KATL - KLAX

Flight Track Log - Related Links

Times and Time Zones

All times are in EDT time to prevent confusion due to time zone crossing. See the DAL370 flight status page for this flight to view local times or setup timezone preferences in your user account.

Time Position Orientation Groundspeed Altitude Reporting Facility
EDT Latitude Longitude Course Direction KTS MPH feet Rate Location/Type
03:23PM 33.6556 -84.5081 252° West 459 528 3,400  Level Atlanta Center
03:24PM 33.6667 -84.5667 283° West 263 303 6,000 3,120 Climbing Atlanta TRACON
03:25PM 33.8001 -84.3960 270° West  Level FlightAware Approximate
03:25PM 33.6833 -84.6667 281° West 276 318 9,300  Level Atlanta TRACON
03:26PM 33.8000 -84.5444 270° West  Level FlightAware Approximate
03:27PM 33.7801 -84.6890 252° West  Level FlightAware Approximate
03:27PM 33.6869 -84.8875 271° West 348 400 13,900  Level Atlanta Center
03:28PM 33.7412 -84.8298 252° West  Level FlightAware Approximate
03:28PM 33.6736 -85.0147 263° West 380 437 16,800  Level Atlanta Center
03:29PM 33.6578 -85.1569 262° West 395 455 18,900 1,080 Climbing Atlanta Center
03:30PM 33.6500 -85.2914 266° West 406 467 19,000 120 Climbing Atlanta Center
03:31PM 33.6528 -85.4314 271° West 406 467 19,200 1,320 Climbing Atlanta Center
03:33PM 33.6411 -85.7031 267° West 412 474 23,000 4,200 Climbing Atlanta Center
03:35PM 33.5997 -85.9642 259° West 409 471 36,000 2,100 Climbing Atlanta Center
03:36PM 33.5814 -86.0686 258° West 403 464 29,300 -3,000 Descending Atlanta Center
03:37PM 33.5431 -86.2272 254° West 403 464 30,000 300 Climbing Atlanta Center
03:38PM 33.5117 -86.3483 253° West 403 464 30,000  Level Atlanta Center
03:40PM 33.5311 -86.6331 275° West 437 503 30,000  Level Atlanta Center
03:41PM 33.6014 -86.7647 303° West 445 512 30,000  Level Atlanta Center
03:42PM 33.6628 -86.9017 298° West 451 519 30,000  Level Atlanta Center
03:43PM 33.6614 -87.0536 269° West 450 518 30,000  Level Atlanta Center
03:45PM 33.6417 -87.4403 267° West 463 533 30,000  Level Memphis Center
03:46PM 33.6344 -87.5753 266° West 463 533 30,000 300 Level Memphis Center
03:47PM 33.6253 -87.7303 266° West 463 533 30,600 960 Climbing Memphis Center
03:48PM 33.6178 -87.8828 267° West 463 533 32,000 1,080 Climbing Memphis Center
03:49PM 33.6083 -88.0375 266° West 463 533 32,800 960 Climbing Memphis Center
03:50PM 33.6006 -88.1875 266° West 463 533 34,000 1,140 Climbing Memphis Center
03:51PM 33.5908 -88.3422 266° West 463 533 35,100 960 Climbing Memphis Center
03:52PM 33.5806 -88.4897 265° West 463 533 36,000 420 Climbing Memphis Center
03:53PM 33.5722 -88.6394 266° West 463 533 36,000  Level Memphis Center
03:54PM 33.5636 -88.7892 266° West 458 527 36,000  Level Memphis Center
03:55PM 33.5572 -88.9364 267° West 458 527 36,000  Level Memphis Center
03:56PM 33.5464 -89.0911 265° West 463 533 36,000  Level Memphis Center
03:57PM 33.5372 -89.2433 266° West 463 533 36,000  Level Memphis Center
03:58PM 33.5281 -89.3953 266° West 463 533 36,000  Level Memphis Center
03:59PM 33.5189 -89.5525 266° West 463 533 36,000  Level Memphis Center
04:00PM 33.5053 -89.7269 265° West 468 539 36,000  Level Memphis Center
04:01PM 33.4933 -89.8839 265° West 473 544 36,000  Level Memphis Center
04:02PM 33.4814 -90.0408 265° West 478 550 36,000  Level Memphis Center
04:03PM 33.4692 -90.1978 265° West 483 556 36,000  Level Memphis Center
04:04PM 33.4569 -90.3572 265° West 483 556 36,000  Level Memphis Center
04:05PM 33.4464 -90.5117 265° West 483 556 36,000  Level Memphis Center
04:06PM 33.4336 -90.6708 265° West 483 556 36,000  Level Memphis Center
04:07PM 33.4206 -90.8250 264° West 478 550 36,000  Level Memphis Center
04:08PM 33.4094 -90.9819 265° West 478 550 36,000  Level Memphis Center
04:09PM 33.3981 -91.1336 265° West 478 550 36,000  Level Memphis Center
04:10PM 33.3847 -91.2703 263° West 478 550 36,000  Level Memphis Center
04:13PM 33.3633 -91.6164 266° West 460 529 36,000  Level Fort Worth Center
04:14PM 33.3514 -91.7639 265° West 460 529 36,000  Level Fort Worth Center
04:15PM 33.3350 -91.9117 262° West 460 529 36,000  Level Fort Worth Center
04:16PM 33.3269 -92.0611 266° West 455 524 36,000  Level Fort Worth Center
04:17PM 33.3103 -92.2114 262° West 455 524 36,000  Level Fort Worth Center
04:18PM 33.2953 -92.3586 263° West 455 524 36,000  Level Fort Worth Center
04:19PM 33.2789 -92.5211 263° West 455 524 36,000  Level Fort Worth Center
04:20PM 33.2658 -92.6708 264° West 455 524 36,000  Level Fort Worth Center
04:21PM 33.2506 -92.8208 263° West 455 524 36,000  Level Fort Worth Center
04:22PM 33.2411 -92.9678 266° West 449 517 36,000  Level Fort Worth Center
04:23PM 33.2317 -93.1172 266° West 449 517 36,000  Level Fort Worth Center
04:24PM 33.2200 -93.2667 265° West 454 522 36,000  Level Fort Worth Center
04:25PM 33.2100 -93.4086 265° West 454 522 36,000  Level Fort Worth Center
04:26PM 33.2003 -93.5581 266° West 448 516 36,000  Level Fort Worth Center
04:27PM 33.1858 -93.7053 263° West 448 516 36,000  Level Fort Worth Center
04:28PM 33.1756 -93.8569 265° West 453 521 36,000  Level Fort Worth Center
04:29PM 33.1633 -94.0139 265° West 463 533 36,000  Level Fort Worth Center
04:30PM 33.1547 -94.1631 266° West 468 539 36,000  Level Fort Worth Center
04:31PM 33.1453 -94.2850 265° West 468 539 36,000  Level Fort Worth Center
04:32PM 33.1325 -94.4492 265° West 463 533 36,000  Level Fort Worth Center
04:33PM 33.1211 -94.5958 265° West 463 533 36,000  Level Fort Worth Center
04:34PM 33.1078 -94.7475 264° West 463 533 36,000  Level Fort Worth Center
04:35PM 33.0964 -94.8942 265° West 463 533 36,000  Level Fort Worth Center
04:36PM 33.0847 -95.0456 265° West 463 533 36,000  Level Fort Worth Center
04:37PM 33.0728 -95.1947 265° West 463 533 36,000  Level Fort Worth Center
04:38PM 33.0586 -95.3414 263° West 463 533 36,000  Level Fort Worth Center
04:39PM 33.0442 -95.4928 264° West 463 533 36,000  Level Fort Worth Center
04:40PM 33.0339 -95.6392 265° West 463 533 36,000  Level Fort Worth Center
04:41PM 33.0172 -95.8031 263° West 463 533 36,000  Level Fort Worth Center
04:42PM 33.0083 -95.9369 266° West 463 533 36,000  Level Fort Worth Center
04:43PM 32.9933 -96.0858 263° West 463 533 36,000  Level Fort Worth Center
04:44PM 32.9803 -96.2347 264° West 463 533 36,000  Level Fort Worth Center
04:45PM 32.9711 -96.3833 266° West 463 533 36,000  Level Fort Worth Center
04:46PM 32.9828 -96.5294 275° West 458 527 36,000  Level Fort Worth Center
04:47PM 32.9939 -96.6481 276° West 458 527 36,000  Level Fort Worth Center
04:48PM 33.0114 -96.8239 277° West 458 527 36,000  Level Fort Worth Center
04:49PM 33.0267 -96.9847 277° West 458 527 36,000  Level Fort Worth Center
04:50PM 33.0458 -97.1111 280° West 447 514 36,000  Level Fort Worth Center
04:51PM 33.0567 -97.2819 274° West 452 520 36,000  Level Fort Worth Center
04:52PM 33.0714 -97.4308 277° West 460 529 36,000  Level Fort Worth Center
04:53PM 33.0817 -97.5819 275° West 460 529 36,000  Level Fort Worth Center
04:54PM 33.0939 -97.7283 276° West 460 529 36,000  Level Fort Worth Center
04:55PM 33.1081 -97.8747 277° West 460 529 36,000  Level Fort Worth Center
04:56PM 33.1200 -98.0261 275° West 460 529 36,000  Level Fort Worth Center
04:57PM 33.1317 -98.1725 275° West 460 529 36,000  Level Fort Worth Center
04:58PM 33.1453 -98.3192 276° West 455 524 36,000  Level Fort Worth Center
04:59PM 33.1528 -98.4383 274° West 455 524 36,000  Level Fort Worth Center
05:00PM 33.1639 -98.5947 275° West 445 512 36,000  Level Fort Worth Center
05:01PM 33.1769 -98.7439 276° West 445 512 36,000  Level Fort Worth Center
05:02PM 33.1858 -98.8928 274° West 445 512 36,000  Level Fort Worth Center
05:03PM 33.1983 -99.0419 276° West 445 512 36,000  Level Fort Worth Center
05:04PM 33.2092 -99.1861 275° West 445 512 36,000  Level Fort Worth Center
05:05PM 33.2194 -99.3353 275° West 445 512 36,000  Level Fort Worth Center
05:06PM 33.2317 -99.4872 276° West 445 512 36,000  Level Fort Worth Center
05:07PM 33.2417 -99.6314 275° West 445 512 36,000  Level Fort Worth Center
05:08PM 33.2514 -99.7781 275° West 445 512 36,000  Level Fort Worth Center
05:09PM 33.2631 -99.9250 275° West 445 512 36,000  Level Fort Worth Center
05:10PM 33.2706 -100.0719 274° West 445 512 36,000  Level Fort Worth Center
05:11PM 33.2800 -100.2164 275° West 445 512 36,000  Level Fort Worth Center
05:12PM 33.2911 -100.3658 275° West 445 512 36,000  Level Fort Worth Center
05:13PM 33.3000 -100.5128 274° West 445 512 36,000  Level Fort Worth Center
05:14PM 33.3089 -100.6597 274° West 445 512 36,000  Level Fort Worth Center
05:15PM 33.3175 -100.8092 274° West 445 512 36,000  Level Fort Worth Center
05:16PM 33.3258 -100.9586 274° West 445 512 36,000  Level Fort Worth Center
05:17PM 33.3358 -101.1156 274° West 445 512 36,000  Level Fort Worth Center
05:18PM 33.3422 -101.2500 273° West 451 519 36,000  Level Fort Worth Center
05:19PM 33.3497 -101.4144 273° West 451 519 36,000  Level Fort Worth Center
05:20PM 33.3600 -101.5444 275° West 451 519 36,000  Level Fort Worth Center
05:21PM 33.3622 -101.6664 271° West 451 519 36,000  Level Fort Worth Center
05:22PM 33.3706 -101.8458 273° West 456 525 36,000  Level Fort Worth Center
05:23PM 33.3794 -102.0103 274° West 461 531 36,000  Level Fort Worth Center
05:24PM 33.3883 -102.1625 274° West 461 531 36,000  Level Fort Worth Center
05:25PM 33.3950 -102.3122 273° West 456 525 36,000  Level Fort Worth Center
05:26PM 33.4017 -102.4617 273° West 456 525 36,000  Level Fort Worth Center
05:27PM 33.4142 -102.6117 276° West 461 531 36,000  Level Fort Worth Center
05:28PM 33.4228 -102.7542 274° West 461 531 36,000  Level Fort Worth Center
05:29PM 33.4286 -102.9089 273° West 461 531 36,000  Level Fort Worth Center
05:30PM 33.4292 -103.0017 270° West 455 524 36,000  Level Albuquerque Center
05:31PM 33.4353 -103.1831 272° West 457 526 36,000  Level Albuquerque Center
05:32PM 33.4417 -103.3342 273° West 457 526 36,000  Level Albuquerque Center
05:33PM 33.4469 -103.4836 272° West 454 522 36,000  Level Albuquerque Center
05:34PM 33.4533 -103.6336 273° West 454 522 36,000  Level Albuquerque Center
05:35PM 33.4617 -103.8014 273° West 457 526 36,000  Level Albuquerque Center
05:36PM 33.4667 -103.9639 272° West 457 526 36,000  Level Albuquerque Center
05:37PM 33.4717 -104.1158 272° West 458 527 36,000  Level Albuquerque Center
05:38PM 33.4772 -104.2789 272° West 458 527 36,000  Level Albuquerque Center
05:39PM 33.4817 -104.4308 272° West 460 529 36,000  Level Albuquerque Center
05:40PM 33.4872 -104.5958 272° West 465 535 36,000  Level Albuquerque Center
05:41PM 33.4903 -104.7483 271° West 463 533 36,000  Level Albuquerque Center
05:42PM 33.4950 -104.9125 272° West 462 532 36,000  Level Albuquerque Center
05:43PM 33.4983 -105.0639 272° West 457 526 36,000  Level Albuquerque Center
05:44PM 33.5017 -105.2164 272° West 459 528 36,000  Level Albuquerque Center
05:45PM 33.5067 -105.3794 272° West 457 526 36,000  Level Albuquerque Center
05:46PM 33.5103 -105.5311 272° West 459 528 36,000  Level Albuquerque Center
05:47PM 33.5144 -105.6867 272° West 462 532 36,000  Level Albuquerque Center
05:48PM 33.5189 -105.8414 272° West 465 535 36,000  Level Albuquerque Center
05:49PM 33.5178 -105.9881 270° West 455 524 36,000 -60 Level Albuquerque Center
05:50PM 33.5214 -106.1414 272° West 459 528 35,900  Descending Albuquerque Center
05:51PM 33.5228 -106.2919 271° West 457 526 36,000  Climbing Albuquerque Center
05:52PM 33.5250 -106.4419 271° West 454 522 36,000  Level Albuquerque Center
05:53PM 33.5278 -106.6267 271° West 460 529 36,000  Level Albuquerque Center
05:54PM 33.5294 -106.7789 271° West 461 531 36,000  Level Albuquerque Center
05:55PM 33.5317 -106.9300 271° West 459 528 36,000  Level Albuquerque Center
05:56PM 33.5333 -107.0800 271° West 456 525 36,000  Level Albuquerque Center
05:57PM 33.5311 -107.2308 269° West 456 525 36,000  Level Albuquerque Center
05:58PM 33.5119 -107.3792 261° West 452 520 36,000  Level Albuquerque Center
05:59PM 33.4939 -107.5547 263° West 449 517 36,000  Level Albuquerque Center
06:00PM 33.4778 -107.7042 263° West 453 521 36,000  Level Albuquerque Center
06:01PM 33.4614 -107.8533 263° West 454 522 36,000  Level Albuquerque Center
06:02PM 33.4456 -108.0025 263° West 455 524 36,000  Level Albuquerque Center
06:03PM 33.4289 -108.1703 263° West 459 528 36,000  Level Albuquerque Center
06:05PM 33.4414 -108.3178 276° West 455 524 36,000  Level Albuquerque Center
06:06PM 33.4686 -108.4653 283° West 456 525 36,000  Level Albuquerque Center
06:07PM 33.4978 -108.6122 283° West 457 526 36,000  Level Albuquerque Center
06:08PM 33.5244 -108.7603 282° West 459 528 36,000  Level Albuquerque Center
06:09PM 33.5575 -108.9389 283° West 461 531 36,000  Level Albuquerque Center
06:10PM 33.5589 -109.0908 271° West 461 531 36,000  Level Albuquerque Center
06:11PM 33.5592 -109.2419 270° West 459 528 36,000  Level Albuquerque Center
06:12PM 33.5569 -109.3944 269° West 460 529 36,000  Level Albuquerque Center
06:13PM 33.5539 -109.5442 269° West 457 526 36,000  Level Albuquerque Center
06:14PM 33.5522 -109.6914 269° West 447 514 36,000  Level Albuquerque Center
06:15PM 33.5486 -109.8689 269° West 447 514 36,000  Level Albuquerque Center
06:16PM 33.5450 -110.0169 268° West 446 513 36,000  Level Albuquerque Center
06:17PM 33.5411 -110.1678 268° West 452 520 36,000  Level Albuquerque Center
06:18PM 33.5381 -110.3172 269° West 452 520 36,000  Level Albuquerque Center
06:19PM 33.5350 -110.4608 269° West 453 521 36,000  Level Albuquerque Center
06:20PM 33.5300 -110.6439 268° West 457 526 36,000  Level Albuquerque Center
06:21PM 33.5267 -110.7969 269° West 459 528 36,000  Level Albuquerque Center
06:22PM 33.5225 -110.9492 268° West 459 528 36,000  Level Albuquerque Center
06:23PM 33.5181 -111.1014 268° West 457 526 36,000  Level Albuquerque Center
06:24PM 33.4761 -111.2408 250° West 448 516 36,000  Level Albuquerque Center
06:25PM 33.3717 -111.3203 212° Southwest 446 513 36,000  Level Albuquerque Center
06:26PM 33.2592 -111.3789 204° Southwest 441 507 36,000  Level Albuquerque Center
06:27PM 33.1511 -111.4483 208° Southwest 445 512 36,000  Level Albuquerque Center
06:28PM 33.1211 -111.5864 255° West 454 522 36,000  Level Albuquerque Center
06:29PM 33.1686 -111.7597 288° West 457 526 36,000  Level Albuquerque Center
06:30PM 33.2089 -111.9069 288° West 462 532 36,000  Level Albuquerque Center
06:31PM 33.2481 -112.0508 288° West 458 527 36,000  Level Albuquerque Center
06:32PM 33.2875 -112.1961 288° West 457 526 36,000  Level Albuquerque Center
06:33PM 33.3250 -112.3422 287° West 459 528 36,000  Level Albuquerque Center
06:34PM 33.3636 -112.4872 288° West 456 525 36,000  Level Albuquerque Center
06:35PM 33.4031 -112.6314 288° West 461 531 36,000  Level Albuquerque Center
06:36PM 33.4414 -112.7778 287° West 464 534 36,000  Level Albuquerque Center
06:37PM 33.4989 -112.9500 292° West 467 537 36,000  Level Albuquerque Center
06:38PM 33.5506 -113.0939 293° West 471 542 36,000  Level Albuquerque Center
06:39PM 33.6028 -113.2403 293° West 477 549 36,000  Level Albuquerque Center
06:40PM 33.6556 -113.3919 293° West 475 547 36,000  Level Albuquerque Center
06:42PM 33.7081 -113.5397 293° West 477 549 36,000  Level Albuquerque Center
06:43PM 33.7586 -113.6864 293° West 477 549 36,000  Level Albuquerque Center
06:44PM 33.8106 -113.8333 293° West 477 549 36,000  Level Albuquerque Center
06:45PM 33.8617 -113.9800 293° West 477 549 36,000  Level Albuquerque Center
06:46PM 33.9119 -114.1267 292° West 476 548 36,000  Level Albuquerque Center
06:47PM 33.9700 -114.2944 293° West 477 549 36,000  Level Albuquerque Center
06:48PM 34.0206 -114.4419 293° West 478 550 36,000  Level Albuquerque Center
06:49PM 34.0839 -114.6233 293° West 475 547 36,000 -60 Level Los Angeles Center
06:50PM 34.1339 -114.7664 293° West 468 539 35,900  Descending Los Angeles Center
06:51PM 34.1917 -114.9372 292° West 461 531 36,000  Climbing Los Angeles Center
06:52PM 34.2408 -115.0794 293° West 460 529 36,000  Level Los Angeles Center
06:53PM 34.2575 -115.2292 278° West 462 532 36,000  Level Los Angeles Center
06:54PM 34.2347 -115.3783 260° West 453 521 36,000  Level Los Angeles Center
06:55PM 34.2111 -115.5267 259° West 453 521 36,000 -780 Level Los Angeles Center
06:57PM 34.1943 -115.7312 264° West  Level Estimated
06:57PM 34.1597 -115.8564 270° West 460 529 33,700  Level Los Angeles Center
06:58PM 34.1347 -116.0117 259° West 452 520 31,700 -1,860 Descending Los Angeles Center
06:59PM 34.1133 -116.1461 259° West 441 507 29,900 -1,920 Descending Los Angeles Center
07:00PM 34.0897 -116.2881 259° West 436 502 27,700 -1,560 Descending Los Angeles Center
07:01PM 34.0669 -116.4331 301° West 440 506 26,700 -1,680 Descending Los Angeles Center
07:02PM 34.0788 -116.4656 260° West  Level Estimated
07:02PM 34.0389 -116.5997 259° West 428 493 24,300  Level Los Angeles Center
07:03PM 34.0211 -116.7369 261° West 418 481 22,400 -1,620 Descending Los Angeles Center
07:04PM 34.0000 -116.7408 270° West  Level FlightAware Approximate
07:04PM 33.9967 -116.8706 258° West 413 475 21,000  Level Los Angeles Center
07:05PM 33.9667 -117.0000 254° West 404 465 20,700 -1,620 Descending Southern California TRACON
07:06PM 33.9500 -117.1333 261° West 391 450 18,000 -2,280 Descending Southern California TRACON
07:07PM 33.9333 -117.2667 261° West 335 386 15,900 -1,860 Descending Southern California TRACON
07:08PM 33.9333 -117.3500 270° West 323 372 14,300 -1,380 Descending Southern California TRACON
07:09PM 33.9589 -117.4677 301° West  Level FlightAware Approximate
07:09PM 33.9667 -117.4500 292° West 309 356 13,300  Level Southern California TRACON
07:10PM 34.0000 -117.5500 292° West 304 350 11,900 -1,440 Descending Southern California TRACON
07:11PM 34.0167 -117.6500 281° West 344 396 10,500 -1,260 Descending Southern California TRACON
07:12PM 34.0000 -117.7500 259° West 293 337 9,400 -1,260 Descending Southern California TRACON
07:13PM 33.9833 -117.8500 259° West 292 336 8,000 -1,500 Descending Southern California TRACON
07:14PM 33.9833 -117.9500 270° West 282 325 6,500 -1,200 Descending Southern California TRACON
07:15PM 33.9667 -118.0333 256° West 241 277 5,700 -1,020 Descending Southern California TRACON
07:16PM 33.9667 -118.1000 270° West 223 257 4,500 -1,080 Descending Southern California TRACON
07:17PM 33.9667 -118.1667 270° West 198 228 3,600 -960 Descending Southern California TRACON
07:18PM 33.9564 -118.1994 249° West 209 241 3,100 -1,020 Descending Los Angeles Center
07:19PM 33.9508 -118.2600 264° West 195 224 2,100 -1,020 Descending Los Angeles Center